Time;durP1;ratioP1;P1;durP2;ratioP2;P2;SDS_P1;SDS_P2;PMS_P1;PMS_P2;Temp;Humidity;BMP_temperature;BMP_pressure;BME280_temperature;BME280_humidity;BME280_pressure;Samples;Min_cycle;Max_cycle;Signal;HPM_P1;HPM_P2
2020/12/04 00:00:12;;;;;;;10.07;5.10;;;;;;;1.47;86.71;98386.97;5075580;28;20028;-91
2020/12/04 00:02:37;;;;;;;10.05;4.78;;;;;;;1.48;86.49;98376.47;5074456;28;20060;-90
2020/12/04 00:05:04;;;;;;;8.98;5.43;;;;;;;1.46;86.37;98377.56;5074836;28;20067;-90
2020/12/04 00:07:30;;;;;;;8.98;5.07;;;;;;;1.44;86.58;98380.31;5075317;28;20032;-90
2020/12/04 00:09:56;;;;;;;10.10;5.07;;;;;;;1.43;86.36;98373.50;5075776;28;20479;-90
2020/12/04 00:12:22;;;;;;;11.65;5.88;;;;;;;1.43;86.59;98375.28;5075884;28;20028;-90
2020/12/04 00:14:47;;;;;;;9.02;4.72;;;;;;;1.38;86.70;98374.88;5076466;28;20033;-91
2020/12/04 00:17:13;;;;;;;7.95;4.93;;;;;;;1.34;86.72;98374.34;5075905;28;20031;-90
2020/12/04 00:19:39;;;;;;;9.57;5.30;;;;;;;1.32;86.58;98381.41;5075960;28;20130;-91
2020/12/04 00:22:04;;;;;;;9.60;4.97;;;;;;;1.26;86.78;98381.13;5082240;28;20029;-90
2020/12/04 00:24:30;;;;;;;8.80;4.70;;;;;;;1.25;86.63;98377.75;5084660;28;20119;-90
2020/12/04 00:26:57;;;;;;;10.43;5.05;;;;;;;1.24;86.84;98373.53;5088658;28;20029;-89
2020/12/04 00:29:23;;;;;;;8.98;5.13;;;;;;;1.16;86.84;98371.66;5086193;28;20025;-90
2020/12/04 00:31:49;;;;;;;8.70;5.15;;;;;;;1.15;86.86;98367.44;5076124;28;20092;-91
2020/12/04 00:34:15;;;;;;;8.32;4.47;;;;;;;1.14;86.93;98368.41;5075794;28;20058;-91
2020/12/04 00:36:43;;;;;;;7.65;4.53;;;;;;;1.13;86.90;98369.34;5074717;28;20100;-91
2020/12/04 00:39:09;;;;;;;9.18;4.78;;;;;;;1.11;87.11;98370.44;5074766;28;20021;-90
2020/12/04 00:41:35;;;;;;;9.52;5.28;;;;;;;1.10;86.99;98372.19;5073878;28;20040;-91
2020/12/04 00:44:00;;;;;;;10.15;5.07;;;;;;;1.08;87.05;98368.94;5074104;28;20028;-91
2020/12/04 00:46:26;;;;;;;10.98;5.05;;;;;;;1.08;87.17;98368.13;5074159;28;20395;-91
2020/12/04 00:48:51;;;;;;;8.88;5.32;;;;;;;1.04;87.19;98370.16;5073836;28;20021;-91
2020/12/04 00:51:17;;;;;;;7.55;4.68;;;;;;;1.01;87.09;98378.19;5073977;28;20031;-90
2020/12/04 00:53:42;;;;;;;10.73;5.45;;;;;;;1.01;87.06;98373.03;5072675;28;20028;-90
2020/12/04 00:56:08;;;;;;;9.40;4.72;;;;;;;0.97;87.18;98366.50;5073626;28;20028;-90
2020/12/04 00:58:33;;;;;;;11.43;5.25;;;;;;;0.97;87.13;98361.34;5073676;28;20024;-90
2020/12/04 01:01:00;;;;;;;11.65;5.25;;;;;;;0.96;87.25;98359.72;5073539;28;20024;-91
2020/12/04 01:03:26;;;;;;;11.95;4.82;;;;;;;0.95;87.19;98362.41;5073823;28;20421;-91
2020/12/04 01:05:52;;;;;;;9.73;5.20;;;;;;;0.93;87.28;98357.38;5076032;28;20035;-91
2020/12/04 01:08:17;;;;;;;11.70;5.50;;;;;;;0.94;87.17;98366.75;5076692;28;20475;-90
2020/12/04 01:10:43;;;;;;;10.60;4.85;;;;;;;0.92;87.25;98353.19;5075292;28;20028;-89
2020/12/04 01:13:08;;;;;;;10.13;5.28;;;;;;;0.93;87.31;98348.84;5075665;28;20447;-90
2020/12/04 01:15:34;;;;;;;11.27;5.05;;;;;;;0.88;87.38;98354.41;5074631;28;20512;-91
2020/12/04 01:17:59;;;;;;;9.82;5.30;;;;;;;0.89;87.30;98359.44;5074045;28;20027;-91
2020/12/04 01:20:25;;;;;;;11.57;4.88;;;;;;;0.88;86.94;98362.16;5073748;28;20032;-90
2020/12/04 01:22:50;;;;;;;10.27;5.45;;;;;;;0.86;87.44;98353.75;5077419;28;20028;-90
2020/12/04 01:25:16;;;;;;;11.77;5.70;;;;;;;0.84;87.58;98351.28;5077780;28;20035;-90
2020/12/04 01:27:41;;;;;;;11.35;6.18;;;;;;;0.83;87.28;98354.84;5077809;28;20442;-90
2020/12/04 01:30:07;;;;;;;12.27;4.90;;;;;;;0.83;87.35;98354.84;5076963;28;20028;-90
2020/12/04 01:32:32;;;;;;;12.25;5.00;;;;;;;0.82;87.64;98354.97;5073005;28;20070;-89
2020/12/04 01:34:57;;;;;;;10.57;5.22;;;;;;;0.78;87.61;98351.81;5073146;28;20021;-90
2020/12/04 01:37:23;;;;;;;10.57;4.93;;;;;;;0.79;87.52;98355.22;5072630;28;20475;-91
2020/12/04 01:39:48;;;;;;;9.77;5.18;;;;;;;0.74;87.82;98358.22;5073143;28;20493;-94
2020/12/04 01:42:14;;;;;;;11.30;5.38;;;;;;;0.74;87.81;98357.41;5072956;28;20045;-92
2020/12/04 01:44:40;;;;;;;9.70;5.63;;;;;;;0.74;87.62;98357.41;5096215;28;20027;-91
2020/12/04 01:47:06;;;;;;;10.60;5.78;;;;;;;0.71;87.85;98355.09;5078598;28;20032;-92
2020/12/04 01:49:32;;;;;;;9.68;5.10;;;;;;;0.72;87.84;98356.72;5073566;28;20027;-91
2020/12/04 01:51:57;;;;;;;10.50;5.32;;;;;;;0.72;87.78;98364.47;5072846;28;20051;-91
2020/12/04 01:54:23;;;;;;;11.05;5.50;;;;;;;0.72;87.88;98365.28;5072483;28;20353;-91
2020/12/04 01:56:49;;;;;;;9.10;4.90;;;;;;;0.70;88.01;98356.06;5073142;28;20050;-91
2020/12/04 01:59:15;;;;;;;8.73;5.28;;;;;;;0.70;88.00;98351.69;5072447;28;20469;-91
2020/12/04 02:01:43;;;;;;;12.02;5.47;;;;;;;0.69;88.06;98355.22;5074380;28;20032;-91
2020/12/04 02:04:11;;;;;;;10.73;5.85;;;;;;;0.69;88.25;98355.22;5072258;28;20028;-91
2020/12/04 02:06:46;;;;;;;9.20;5.60;;;;;;;0.69;88.24;98362.16;5072361;28;20033;-91
2020/12/04 02:09:21;;;;;;;11.25;5.30;;;;;;;0.67;88.12;98361.47;5071893;28;20093;-92
2020/12/04 02:11:48;;;;;;;8.47;5.27;;;;;;;0.67;88.20;98364.06;5083328;28;20040;-90
2020/12/04 02:14:16;;;;;;;9.95;5.15;;;;;;;0.68;88.27;98365.69;5093711;28;20016;-91
2020/12/04 02:16:44;;;;;;;9.02;4.95;;;;;;;0.66;88.11;98352.94;5072595;28;20068;-91
2020/12/04 02:19:10;;;;;;;8.23;4.97;;;;;;;0.66;88.30;98354.69;5072854;28;20274;-91
2020/12/04 02:21:37;;;;;;;10.55;5.18;;;;;;;0.65;88.41;98353.06;5073093;28;20112;-91
2020/12/04 02:24:03;;;;;;;10.25;5.35;;;;;;;0.62;88.53;98350.75;5089532;28;20033;-91
2020/12/04 02:26:29;;;;;;;8.52;4.95;;;;;;;0.62;88.45;98361.06;5081519;28;20024;-91
2020/12/04 02:28:54;;;;;;;12.15;4.90;;;;;;;0.63;88.36;98363.50;5094240;28;20044;-90
2020/12/04 02:31:23;;;;;;;11.00;5.50;;;;;;;0.61;88.71;98362.81;5080116;28;20044;-91
2020/12/04 02:33:49;;;;;;;9.25;4.82;;;;;;;0.58;88.80;98363.09;5074040;28;20036;-90
2020/12/04 02:36:15;;;;;;;9.55;4.50;;;;;;;0.58;88.71;98356.16;5073446;28;20039;-90
2020/12/04 02:38:41;;;;;;;8.68;4.82;;;;;;;0.57;88.86;98364.84;5072513;28;20032;-91
2020/12/04 02:41:07;;;;;;;8.75;4.43;;;;;;;0.57;88.50;98364.84;5076695;28;20039;-92
2020/12/04 02:43:33;;;;;;;9.00;3.95;;;;;;;0.58;88.92;98360.50;5080147;28;20036;-91
2020/12/04 02:45:58;;;;;;;8.52;4.88;;;;;;;0.57;88.75;98359.69;5073731;28;20024;-91
2020/12/04 02:48:23;;;;;;;8.52;4.20;;;;;;;0.56;88.70;98358.06;5072050;28;20029;-89
2020/12/04 02:50:49;;;;;;;10.23;4.63;;;;;;;0.56;89.17;98352.91;5072582;28;20056;-91
2020/12/04 02:53:14;;;;;;;7.40;4.15;;;;;;;0.56;89.03;98350.34;5081293;28;20124;-91
2020/12/04 02:55:41;;;;;;;10.70;4.45;;;;;;;0.58;89.24;98348.44;5091007;28;20036;-91
2020/12/04 02:58:06;;;;;;;8.18;4.07;;;;;;;0.59;89.15;98352.63;5075718;28;20047;-91
2020/12/04 03:00:32;;;;;;;9.07;3.75;;;;;;;0.57;89.42;98354.53;5072829;28;20471;-92
2020/12/04 03:02:57;;;;;;;14.60;4.88;;;;;;;0.57;89.34;98351.97;5071864;28;20471;-90
2020/12/04 03:05:23;;;;;;;7.93;4.28;;;;;;;0.58;89.19;98350.19;5071685;28;20035;-91
2020/12/04 03:07:48;;;;;;;7.28;4.10;;;;;;;0.57;89.33;98343.41;5071805;28;20029;-91
2020/12/04 03:10:14;;;;;;;7.57;4.05;;;;;;;0.57;89.37;98335.66;5071679;28;20040;-91
2020/12/04 03:12:40;;;;;;;6.93;4.03;;;;;;;0.57;89.25;98338.25;5071735;28;20067;-91
2020/12/04 03:15:07;;;;;;;7.25;3.70;;;;;;;0.58;89.45;98347.63;5072220;28;20033;-91
2020/12/04 03:17:33;;;;;;;7.65;3.67;;;;;;;0.58;89.44;98356.16;5075857;28;20466;-91
2020/12/04 03:19:59;;;;;;;5.57;3.30;;;;;;;0.60;89.34;98358.59;5083335;28;20027;-91
2020/12/04 03:22:25;;;;;;;6.68;4.10;;;;;;;0.60;89.56;98353.44;5083861;28;20092;-92
2020/12/04 03:24:50;;;;;;;6.15;3.80;;;;;;;0.61;89.48;98357.66;5080016;28;20093;-91
2020/12/04 03:27:16;;;;;;;6.85;3.83;;;;;;;0.62;89.61;98354.13;5080235;28;20052;-91
2020/12/04 03:29:41;;;;;;;5.13;3.20;;;;;;;0.66;89.38;98352.94;5082473;28;20029;-91
2020/12/04 03:32:08;;;;;;;6.93;3.53;;;;;;;0.65;89.64;98353.06;5094778;28;20020;-92
2020/12/04 03:34:33;;;;;;;7.60;3.53;;;;;;;0.66;89.72;98352.13;5092933;28;20025;-92
2020/12/04 03:36:59;;;;;;;6.80;3.63;;;;;;;0.65;89.61;98347.91;5075449;28;20470;-92
2020/12/04 03:39:24;;;;;;;6.63;3.47;;;;;;;0.65;89.81;98350.50;5076125;28;20436;-93
2020/12/04 03:41:50;;;;;;;6.70;3.80;;;;;;;0.63;89.68;98348.00;5075163;28;20119;-91
2020/12/04 03:44:16;;;;;;;7.10;3.95;;;;;;;0.63;89.88;98347.19;5075407;28;20032;-91
2020/12/04 03:46:43;;;;;;;6.88;3.70;;;;;;;0.63;89.71;98347.19;5075139;28;20395;-92
2020/12/04 03:49:13;;;;;;;5.88;3.40;;;;;;;0.64;89.91;98356.59;5075069;28;20028;-92
2020/12/04 03:51:43;;;;;;;6.05;3.22;;;;;;;0.65;89.84;98350.50;5094909;28;20046;-91
2020/12/04 03:54:10;;;;;;;6.55;3.60;;;;;;;0.65;89.72;98353.88;5080662;28;20119;-92
2020/12/04 03:56:35;;;;;;;9.23;3.50;;;;;;;0.66;89.79;98357.28;5075277;28;20040;-91
2020/12/04 03:59:00;;;;;;;5.65;3.38;;;;;;;0.66;89.82;98352.13;5074747;28;20031;-91
2020/12/04 04:01:26;;;;;;;4.95;2.95;;;;;;;0.64;90.02;98354.03;5075719;28;20032;-92
2020/12/04 04:03:51;;;;;;;7.03;3.60;;;;;;;0.62;90.25;98355.91;5075672;28;20024;-92
2020/12/04 04:06:17;;;;;;;6.65;3.53;;;;;;;0.63;90.14;98350.59;5075249;28;20032;-91
2020/12/04 04:08:43;;;;;;;5.47;2.90;;;;;;;0.62;90.11;98346.38;5074624;28;20399;-92
2020/12/04 04:11:08;;;;;;;4.72;2.70;;;;;;;0.62;90.03;98345.56;5074362;28;20165;-91
2020/12/04 04:13:34;;;;;;;5.18;3.20;;;;;;;0.63;90.07;98349.78;5074730;28;20028;-92
2020/12/04 04:15:59;;;;;;;5.03;3.03;;;;;;;0.61;90.11;98347.34;5074496;28;20032;-91
2020/12/04 04:18:24;;;;;;;4.95;2.90;;;;;;;0.64;90.32;98348.88;5075234;28;20024;-91
2020/12/04 04:20:50;;;;;;;3.90;2.47;;;;;;;0.65;90.32;98355.66;5074980;28;20046;-92
2020/12/04 04:23:16;;;;;;;4.05;2.50;;;;;;;0.67;90.34;98348.59;5075257;28;20477;-91
2020/12/04 04:25:41;;;;;;;4.63;2.22;;;;;;;0.67;90.24;98348.59;5085990;28;20032;-91
2020/12/04 04:28:11;;;;;;;8.50;2.22;;;;;;;0.67;90.62;98343.44;5091394;28;20454;-91
2020/12/04 04:30:38;;;;;;;4.70;2.10;;;;;;;0.68;90.38;98342.47;5077625;28;20577;-90
2020/12/04 04:33:04;;;;;;;3.33;2.10;;;;;;;0.67;90.36;98338.25;5077243;28;20032;-91
2020/12/04 04:35:30;;;;;;;4.60;2.13;;;;;;;0.68;90.26;98335.56;5076243;28;20513;-92
2020/12/04 04:37:55;;;;;;;3.80;1.92;;;;;;;0.68;90.52;98334.72;5077534;28;20032;-90
2020/12/04 04:40:22;;;;;;;4.57;1.95;;;;;;;0.67;90.36;98326.19;5076689;28;20267;-88
2020/12/04 04:42:48;;;;;;;4.22;2.00;;;;;;;0.69;90.43;98332.00;5075224;28;20072;-90
2020/12/04 04:45:16;;;;;;;3.83;1.83;;;;;;;0.69;90.45;98339.75;5076637;28;20043;-90
2020/12/04 04:47:44;;;;;;;3.05;1.60;;;;;;;0.70;90.47;98332.81;5081015;28;20630;-92
2020/12/04 04:50:09;;;;;;;2.85;1.50;;;;;;;0.71;90.54;98331.88;5078201;28;20508;-91
2020/12/04 04:52:36;;;;;;;5.28;1.95;;;;;;;0.69;90.48;98341.53;5077342;28;20033;-91
2020/12/04 04:55:01;;;;;;;3.80;1.50;;;;;;;0.70;90.56;98333.66;5074173;28;20032;-92
2020/12/04 04:57:27;;;;;;;4.53;1.67;;;;;;;0.71;90.65;98334.47;5073511;28;20028;-89
2020/12/04 04:59:54;;;;;;;3.88;1.88;;;;;;;0.72;90.58;98341.25;5073494;28;20031;-89
2020/12/04 05:02:19;;;;;;;5.13;1.85;;;;;;;0.73;90.78;98340.28;5073854;28;20067;-89
2020/12/04 05:04:54;;;;;;;4.22;1.83;;;;;;;0.72;90.60;98336.91;5073684;28;20059;-90
2020/12/04 05:07:26;;;;;;;3.43;1.20;;;;;;;0.71;90.53;98331.88;5073321;28;20024;-90
2020/12/04 05:09:53;;;;;;;3.28;1.75;;;;;;;0.69;90.54;98332.00;5074080;28;20322;-90
2020/12/04 05:12:19;;;;;;;3.58;1.90;;;;;;;0.69;90.63;98326.03;5073842;28;20035;-89
2020/12/04 05:14:45;;;;;;;4.07;1.92;;;;;;;0.67;90.55;98340.84;5073661;28;20028;-90
2020/12/04 05:17:10;;;;;;;4.25;1.33;;;;;;;0.66;90.46;98334.88;5073273;28;20028;-91
2020/12/04 05:19:42;;;;;;;2.58;1.58;;;;;;;0.66;90.55;98334.06;5073527;28;20502;-90
2020/12/04 05:22:12;;;;;;;3.30;1.40;;;;;;;0.64;90.70;98335.97;5073381;28;20096;-90
2020/12/04 05:24:37;;;;;;;4.20;1.30;;;;;;;0.62;90.75;98324.94;5072776;28;20073;-90
2020/12/04 05:27:20;;;;;;;3.55;1.30;;;;;;;0.59;90.80;98339.75;5080170;28;20040;-91
2020/12/04 05:29:46;;;;;;;2.30;1.10;;;;;;;0.60;90.70;98338.78;5083275;28;20047;-89
2020/12/04 05:32:17;;;;;;;2.33;0.90;;;;;;;0.59;90.58;98337.16;5082545;28;20024;-90
2020/12/04 05:34:43;;;;;;;3.67;1.00;;;;;;;0.58;90.28;98334.72;5080905;28;20024;-91
2020/12/04 05:37:16;;;;;;;2.90;1.00;;;;;;;0.55;90.71;98338.38;5073070;28;20574;-91
2020/12/04 05:39:43;;;;;;;3.28;1.02;;;;;;;0.57;90.86;98340.84;5072549;28;20024;-91
2020/12/04 05:42:09;;;;;;;2.90;1.15;;;;;;;0.55;90.74;98343.53;5072681;28;20048;-91
2020/12/04 05:44:50;;;;;;;4.45;0.90;;;;;;;0.53;90.64;98332.56;5072415;28;20032;-92
2020/12/04 05:47:16;;;;;;;2.35;0.90;;;;;;;0.54;90.59;98335.94;5072715;28;20127;-90
2020/12/04 05:49:44;;;;;;;3.60;1.00;;;;;;;0.52;90.67;98341.25;5072864;28;20039;-91
2020/12/04 05:52:12;;;;;;;2.92;0.90;;;;;;;0.53;90.70;98329.16;5072881;28;20036;-89
2020/12/04 05:54:38;;;;;;;4.47;0.98;;;;;;;0.51;90.80;98338.81;5072374;28;20470;-91
2020/12/04 05:57:07;;;;;;;2.33;0.90;;;;;;;0.48;90.88;98332.16;5072732;28;20047;-91
2020/12/04 05:59:33;;;;;;;3.15;1.25;;;;;;;0.49;90.84;98340.72;5072574;28;20106;-91
2020/12/04 06:01:59;;;;;;;2.47;0.68;;;;;;;0.47;90.78;98332.25;5072487;28;20088;-91
2020/12/04 06:04:25;;;;;;;2.17;0.70;;;;;;;0.46;90.70;98338.38;5078791;28;20029;-92
2020/12/04 06:06:50;;;;;;;3.38;0.98;;;;;;;0.45;91.08;98339.31;5074832;28;20032;-90
2020/12/04 06:09:17;;;;;;;1.75;0.88;;;;;;;0.45;90.72;98329.81;5072408;28;20039;-90
2020/12/04 06:11:46;;;;;;;2.20;0.77;;;;;;;0.45;90.63;98339.31;5073361;28;20028;-91
2020/12/04 06:14:15;;;;;;;1.70;0.80;;;;;;;0.44;90.86;98338.50;5072178;28;20028;-90
2020/12/04 06:17:04;;;;;;;1.80;0.88;;;;;;;0.44;90.81;98341.09;5072553;28;20029;-90
2020/12/04 06:19:31;;;;;;;4.28;0.70;;;;;;;0.44;90.86;98337.69;5071888;28;20044;-90
2020/12/04 06:22:08;;;;;;;3.53;0.90;;;;;;;0.43;90.94;98334.31;5072129;28;20021;-91
2020/12/04 06:24:54;;;;;;;4.28;1.08;;;;;;;0.42;91.08;98335.25;5071758;28;20119;-90
2020/12/04 06:27:41;;;;;;;3.30;1.00;;;;;;;0.44;91.06;98337.69;5058418;28;20036;-90
2020/12/04 06:30:09;;;;;;;3.50;0.95;;;;;;;0.45;91.15;98339.31;5072143;28;20035;-91
2020/12/04 06:32:36;;;;;;;2.10;0.70;;;;;;;0.45;91.06;98345.28;5072167;28;20032;-90
2020/12/04 06:35:03;;;;;;;4.00;0.70;;;;;;;0.47;90.93;98345.97;5071666;28;20475;-92
2020/12/04 06:37:49;;;;;;;2.45;0.93;;;;;;;0.47;91.14;98345.97;5072747;28;20102;-91
2020/12/04 06:40:28;;;;;;;2.92;0.70;;;;;;;0.49;90.92;98344.09;5072210;28;20127;-92
2020/12/04 06:42:58;;;;;;;3.67;1.25;;;;;;;0.50;90.99;98343.16;5072683;28;20048;-91
2020/12/04 06:45:44;;;;;;;7.43;1.20;;;;;;;0.50;91.12;98350.88;5072934;28;20133;-91
2020/12/04 06:48:17;;;;;;;2.13;0.73;;;;;;;0.53;91.10;98348.03;5074390;28;20032;-91
2020/12/04 06:50:46;;;;;;;3.03;0.90;;;;;;;0.55;91.13;98347.91;5073956;28;20025;-91
2020/12/04 06:53:13;;;;;;;4.00;0.90;;;;;;;0.54;91.00;98347.09;5073768;28;20090;-91
2020/12/04 06:55:39;;;;;;;2.50;0.80;;;;;;;0.55;91.16;98345.31;5072788;28;20493;-90
2020/12/04 06:58:06;;;;;;;8.02;0.80;;;;;;;0.55;91.20;98338.38;5072732;28;20144;-90
2020/12/04 07:00:31;;;;;;;3.38;0.90;;;;;;;0.57;91.43;98344.22;5078803;28;20054;-90
2020/12/04 07:03:03;;;;;;;5.00;0.88;;;;;;;0.57;91.16;98344.22;5077240;28;20028;-90
2020/12/04 07:05:29;;;;;;;4.15;0.93;;;;;;;0.57;91.00;98349.38;5073198;28;20043;-91
2020/12/04 07:08:06;;;;;;;2.38;1.00;;;;;;;0.58;91.22;98347.63;5072896;28;20029;-91
2020/12/04 07:10:33;;;;;;;3.88;0.70;;;;;;;0.59;91.31;98347.47;5071731;28;20028;-91
2020/12/04 07:13:00;;;;;;;2.03;0.65;;;;;;;0.60;91.19;98340.56;5072810;28;20029;-92
2020/12/04 07:15:27;;;;;;;2.33;0.60;;;;;;;0.62;91.43;98348.16;5092159;28;20028;-90
2020/12/04 07:17:53;;;;;;;1.45;0.63;;;;;;;0.63;91.38;98347.19;5074254;28;20025;-91
2020/12/04 07:20:19;;;;;;;2.30;0.70;;;;;;;0.63;91.31;98348.00;5072942;28;20115;-92
2020/12/04 07:22:45;;;;;;;2.47;0.90;;;;;;;0.64;91.35;98347.09;5073094;28;20487;-91
2020/12/04 07:25:11;;;;;;;4.53;1.30;;;;;;;0.65;91.50;98346.16;5072736;28;20074;-91
2020/12/04 07:27:37;;;;;;;3.35;0.65;;;;;;;0.67;91.16;98353.75;5073054;28;20033;-91
2020/12/04 07:30:16;;;;;;;1.27;0.60;;;;;;;0.68;91.23;98355.38;5078055;28;20037;-91
2020/12/04 07:32:52;;;;;;;3.92;1.50;;;;;;;0.71;91.41;98355.09;5082956;28;20150;-89
2020/12/04 07:35:19;;;;;;;3.28;0.90;;;;;;;0.70;91.37;98348.31;5080114;28;20096;-90
2020/12/04 07:37:45;;;;;;;2.65;0.50;;;;;;;0.73;91.30;98345.44;5075161;28;20025;-90
2020/12/04 07:40:13;;;;;;;5.90;1.17;;;;;;;0.74;91.48;98350.47;5072550;28;20036;-90
2020/12/04 07:42:39;;;;;;;4.75;0.82;;;;;;;0.74;91.19;98341.91;5072084;28;20052;-90
2020/12/04 07:45:05;;;;;;;3.65;0.88;;;;;;;0.76;91.14;98348.56;5072041;28;20040;-90
2020/12/04 07:47:31;;;;;;;7.03;1.10;;;;;;;0.77;91.29;98355.34;5072520;28;20043;-90
2020/12/04 07:50:00;;;;;;;10.38;0.90;;;;;;;0.79;91.15;98357.78;5072097;28;20021;-91
2020/12/04 07:52:35;;;;;;;2.70;0.80;;;;;;;0.81;91.28;98350.75;5077766;28;20025;-90
2020/12/04 07:55:02;;;;;;;2.80;0.90;;;;;;;0.81;91.07;98361.91;5091084;28;20013;-89
2020/12/04 07:57:50;;;;;;;5.63;0.88;;;;;;;0.83;91.31;98364.34;5073427;28;20043;-91
2020/12/04 08:00:15;;;;;;;3.17;0.80;;;;;;;0.87;91.08;98360.53;5073021;28;20470;-89
2020/12/04 08:02:41;;;;;;;2.70;0.70;;;;;;;0.90;91.04;98357.66;5073798;28;20124;-91
2020/12/04 08:05:07;;;;;;;1.05;0.73;;;;;;;0.94;91.00;98371.91;5077100;28;20029;-91
2020/12/04 08:07:33;;;;;;;2.30;0.80;;;;;;;0.98;91.00;98369.91;5076198;28;20025;-91
2020/12/04 08:10:00;;;;;;;3.38;1.60;;;;;;;0.99;90.98;98369.75;5076537;28;20021;-91
2020/12/04 08:12:33;;;;;;;3.60;0.82;;;;;;;1.04;90.85;98382.25;5076051;28;20020;-89
2020/12/04 08:15:04;;;;;;;5.28;1.13;;;;;;;1.06;90.83;98370.03;5078668;28;20127;-89
2020/12/04 08:17:31;;;;;;;3.45;1.10;;;;;;;1.09;90.75;98369.75;5080450;28;20425;-89
2020/12/04 08:20:01;;;;;;;3.47;1.00;;;;;;;1.12;90.93;98375.47;5077608;28;20025;-90
2020/12/04 08:22:29;;;;;;;6.88;1.60;;;;;;;1.15;90.87;98364.03;5077911;28;20451;-90
2020/12/04 08:27:29;;;;;;;3.22;1.17;;;;;;;1.22;90.45;98367.69;5077049;28;20037;-90
2020/12/04 08:30:22;;;;;;;4.43;1.10;;;;;;;1.20;90.42;98383.31;5077178;28;20028;-90
2020/12/04 08:32:56;;;;;;;2.97;0.80;;;;;;;1.23;90.48;98377.06;5085007;28;20040;-92
2020/12/04 08:35:32;;;;;;;5.00;1.17;;;;;;;1.24;90.54;98364.97;5085307;28;20028;-89
2020/12/04 08:38:07;;;;;;;5.13;1.10;;;;;;;1.22;90.53;98369.47;5079377;28;20063;-90
2020/12/04 08:40:34;;;;;;;3.70;1.10;;;;;;;1.22;90.82;98377.19;5076088;28;20090;-91
2020/12/04 08:43:08;;;;;;;5.13;1.17;;;;;;;1.23;90.49;98378.84;5075964;28;20543;-90
2020/12/04 08:45:34;;;;;;;2.50;1.08;;;;;;;1.25;90.49;98376.91;5075861;28;20498;-90
2020/12/04 08:48:09;;;;;;;5.18;1.30;;;;;;;1.27;90.19;98378.44;5078143;28;20067;-90
2020/12/04 08:50:45;;;;;;;6.47;1.75;;;;;;;1.30;90.35;98377.34;5082571;28;20083;-90
2020/12/04 08:53:14;;;;;;;6.07;1.20;;;;;;;1.30;90.35;98367.81;5082702;28;20076;-91
2020/12/04 08:55:48;;;;;;;5.50;1.02;;;;;;;1.32;90.44;98372.84;5076418;28;20025;-90
2020/12/04 08:58:15;;;;;;;7.30;1.50;;;;;;;1.34;90.11;98363.19;5076876;28;20021;-90
2020/12/04 09:00:43;;;;;;;3.90;1.23;;;;;;;1.39;90.12;98361.81;5078625;28;20394;-91
2020/12/04 09:03:08;;;;;;;7.30;1.25;;;;;;;1.41;90.23;98353.91;5078879;28;20471;-90
2020/12/04 09:05:34;;;;;;;7.70;1.30;;;;;;;1.44;90.00;98346.72;5080767;28;20040;-91
2020/12/04 09:08:00;;;;;;;4.32;1.02;;;;;;;1.48;90.14;98342.09;5080489;28;20033;-91
2020/12/04 09:10:25;;;;;;;3.90;1.15;;;;;;;1.50;90.10;98337.59;5081879;28;20033;-91
2020/12/04 09:12:51;;;;;;;5.93;1.10;;;;;;;1.53;90.10;98324.38;5072390;28;20033;-92
2020/12/04 09:15:20;;;;;;;2.92;0.95;;;;;;;1.58;90.10;98319.63;5075384;28;20501;-91
2020/12/04 09:17:46;;;;;;;5.68;1.00;;;;;;;1.63;90.24;98311.44;5079137;28;20467;-91
2020/12/04 09:20:13;;;;;;;5.18;1.00;;;;;;;1.65;89.91;98305.16;5076898;28;20054;-92
2020/12/04 09:22:39;;;;;;;4.82;1.60;;;;;;;1.66;89.92;98309.38;5077650;28;20037;-92
2020/12/04 09:25:11;;;;;;;6.50;1.58;;;;;;;1.69;90.10;98305.69;5078673;28;20029;-92
2020/12/04 09:27:54;;;;;;;3.83;1.02;;;;;;;1.71;90.05;98309.75;5072438;28;20029;-93
2020/12/04 09:30:22;;;;;;;7.05;1.00;;;;;;;1.74;89.90;98319.84;5077433;28;20048;-89
2020/12/04 09:32:49;;;;;;;6.55;1.13;;;;;;;1.77;89.75;98319.53;5087532;28;20055;-91
2020/12/04 09:35:15;;;;;;;7.15;1.33;;;;;;;1.82;90.05;98326.03;5090300;28;20029;-90
2020/12/04 09:37:43;;;;;;;3.20;0.65;;;;;;;1.84;89.69;98324.94;5083666;28;20025;-90
2020/12/04 09:40:14;;;;;;;3.10;0.80;;;;;;;1.87;89.67;98332.41;5079118;28;20483;-90
2020/12/04 09:42:42;;;;;;;3.78;0.68;;;;;;;1.91;89.78;98345.88;5076426;28;20066;-91
2020/12/04 09:45:07;;;;;;;6.82;1.85;;;;;;;1.94;89.69;98337.81;5059181;28;20482;-89
2020/12/04 09:47:34;;;;;;;6.63;1.88;;;;;;;1.97;89.44;98342.72;5073518;28;20012;-89
2020/12/04 09:50:11;;;;;;;6.90;1.35;;;;;;;2.01;89.71;98336.28;5072228;28;20032;-89
2020/12/04 09:52:38;;;;;;;5.03;1.30;;;;;;;2.04;89.41;98339.38;5075367;28;20032;-87
2020/12/04 09:55:05;;;;;;;3.90;1.50;;;;;;;2.09;89.68;98338.97;5073162;28;20386;-89
2020/12/04 09:57:33;;;;;;;4.25;1.20;;;;;;;2.15;89.40;98337.56;5072981;28;20020;-89
2020/12/04 09:59:59;;;;;;;4.88;1.13;;;;;;;2.19;89.10;98326.78;5076038;28;20476;-89
2020/12/04 10:02:25;;;;;;;3.55;1.13;;;;;;;2.25;89.13;98336.56;5076784;28;20055;-89
2020/12/04 10:04:51;;;;;;;5.55;1.45;;;;;;;2.30;89.13;98326.59;5073188;28;20733;-90
2020/12/04 10:07:16;;;;;;;3.78;1.02;;;;;;;2.38;89.00;98320.69;5073811;28;20040;-89
2020/12/04 10:09:42;;;;;;;2.53;0.88;;;;;;;2.44;88.82;98327.88;5074020;28;20055;-90
2020/12/04 10:12:07;;;;;;;6.82;0.75;;;;;;;2.53;88.57;98323.59;5072819;28;20031;-89
2020/12/04 10:14:34;;;;;;;9.68;1.52;;;;;;;2.59;88.48;98313.44;5073171;28;20024;-90
2020/12/04 10:17:00;;;;;;;3.17;1.13;;;;;;;2.63;88.52;98322.53;5073159;28;20031;-89
2020/12/04 10:19:26;;;;;;;3.85;1.02;;;;;;;2.72;88.48;98317.44;5073653;28;20032;-89
2020/12/04 10:21:52;;;;;;;4.75;1.10;;;;;;;2.79;88.28;98313.28;5082182;28;20157;-89
2020/12/04 10:24:19;;;;;;;4.15;0.90;;;;;;;2.86;88.15;98316.91;5092634;28;20209;-89
2020/12/04 10:26:47;;;;;;;6.78;1.40;;;;;;;2.93;87.99;98315.34;5074080;28;20032;-90
2020/12/04 10:29:15;;;;;;;3.55;0.90;;;;;;;3.01;87.97;98310.22;5068663;28;20021;-89
2020/12/04 10:31:47;;;;;;;3.80;1.33;;;;;;;3.08;87.58;98311.25;5057779;28;20082;-89
2020/12/04 10:34:13;;;;;;;3.42;1.20;;;;;;;3.17;87.39;98314.72;5054535;28;20029;-90
2020/12/04 10:36:41;;;;;;;6.40;1.33;;;;;;;3.25;87.60;98291.44;5053201;28;20033;-89
2020/12/04 10:39:09;;;;;;;7.68;1.15;;;;;;;3.33;87.10;98293.28;5054257;28;20044;-89
2020/12/04 10:41:36;;;;;;;4.18;1.92;;;;;;;3.42;87.19;98280.19;5053491;28;20073;-90
2020/12/04 10:44:04;;;;;;;5.68;0.90;;;;;;;3.52;86.83;98285.28;5053909;28;20029;-89
2020/12/04 10:46:30;;;;;;;9.27;1.20;;;;;;;3.60;86.72;98275.75;5055833;28;20059;-89
2020/12/04 10:48:56;;;;;;;6.03;1.30;;;;;;;3.70;86.35;98267.03;5054693;28;20163;-89
2020/12/04 10:51:22;;;;;;;6.60;1.98;;;;;;;3.79;86.10;98258.34;5052550;28;20032;-89
2020/12/04 10:53:48;;;;;;;5.43;1.05;;;;;;;3.88;85.85;98258.19;5053272;28;20064;-89
2020/12/04 10:56:17;;;;;;;4.82;1.00;;;;;;;3.97;85.80;98261.63;5052608;28;20116;-88
2020/12/04 10:58:42;;;;;;;9.30;1.15;;;;;;;4.04;85.25;98247.03;5062354;28;20029;-90
2020/12/04 11:01:12;;;;;;;3.67;0.85;;;;;;;4.15;85.16;98253.72;5051667;28;20137;-87
2020/12/04 11:05:29;;;;;;;4.75;0.90;;;;;;;4.22;84.80;98231.34;5053597;28;20029;-91
2020/12/04 11:06:28;;;;;;;4.55;1.05;;;;;;;4.32;84.58;98244.19;5054565;28;20035;-88
2020/12/04 11:08:55;;;;;;;6.28;1.30;;;;;;;4.37;84.14;98236.72;5056496;28;20111;-87
2020/12/04 11:11:27;;;;;;;8.35;1.02;;;;;;;4.40;83.64;98221.63;5066447;28;20480;-89
2020/12/04 11:13:53;;;;;;;5.28;1.10;;;;;;;4.46;83.40;98220.19;5054337;28;20112;-88
2020/12/04 11:16:18;;;;;;;5.97;1.13;;;;;;;4.49;83.13;98222.44;5069451;28;20021;-89
2020/12/04 11:18:44;;;;;;;6.63;1.10;;;;;;;4.54;83.17;98206.38;5068911;28;20075;-87
2020/12/04 11:21:09;;;;;;;5.88;1.20;;;;;;;4.55;82.81;98220.97;5053240;28;20548;-87
2020/12/04 11:23:35;;;;;;;4.20;1.20;;;;;;;4.57;82.84;98211.22;5052271;28;20025;-87
2020/12/04 11:26:01;;;;;;;8.13;1.30;;;;;;;4.61;82.78;98212.56;5052348;28;20025;-88
2020/12/04 11:28:26;;;;;;;7.90;1.40;;;;;;;4.64;82.49;98209.63;5052183;28;20021;-88
2020/12/04 11:30:52;;;;;;;7.65;1.55;;;;;;;4.65;82.28;98209.47;5052777;28;20452;-88
2020/12/04 11:33:17;;;;;;;7.60;1.23;;;;;;;4.64;82.12;98207.84;5071039;28;20013;-89
2020/12/04 11:35:43;;;;;;;9.05;1.83;;;;;;;4.68;81.94;98211.72;5054240;28;20024;-89
2020/12/04 11:38:09;;;;;;;8.45;1.23;;;;;;;4.73;81.82;98200.84;5057968;28;20029;-89
2020/12/04 11:40:34;;;;;;;5.15;1.38;;;;;;;4.75;81.47;98170.34;5073526;28;20048;-89
2020/12/04 11:43:01;;;;;;;16.83;3.58;;;;;;;4.76;81.37;98180.56;5055872;28;20567;-88
2020/12/04 11:45:26;;;;;;;4.35;1.40;;;;;;;4.76;81.25;98175.38;5072668;28;20376;-88